首页
METAR-TAF:

METAR-TAF

机场 :

巴吞鲁日, 路易斯安那州, 美国

纬度: 30-32-14N, 经度: 091-08-49W, 海拔: 21米

当前天气观测

该预报发布于57分钟前的12:57 UTC
风速4节,风向东转东北
温度 25°C
湿度 89%
气压 1018 hPa
能見度: 16.1公里
多云层高于1100英尺

METAR: KBTR 181257Z COR 07004KT 10SM BKN011 25/23 A3005 RMK AO2 T02500228

时间: 08:54 (13:54 UTC)

预报

该预报发布于2小时和34分钟前的11:20 UTC
预报有效从18日的 12点(UTC)到 19日的 12点(UTC)
风速5节,风向西转西北
能見度: 10公里
多云层高于5000英尺
从 18日的 1900点(UTC)
风速6节,风向西南
能見度: 10公里
散云层高于2500英尺, 积雨云.
多云层高于7000英尺
附近有雷暴
短暂存在
从 18日的 19点(UTC)到 18日的 23点(UTC)
能見度: 4.8公里
多云层高于2500英尺, 积雨云.
雷暴, 雨, 轻雾
从 19日的 0200点(UTC)
风速4节,风向多变
能見度: 10公里
少量云层高于2000英尺
阴天层高于15000英尺
从 19日的 0900点(UTC)
风速2节,风向东北
能見度: 10公里
阴天层高于2500英尺
附近有阵雨,

TAF: KBTR 181120Z 1812/1912 30005KT P6SM BKN050 FM181900 23006KT P6SM VCTS SCT025CB BKN070 TEMPO 1819/1823 3SM TSRA BR BKN025CB FM190200 VRB04KT P6SM FEW020 OVC150 FM190900 04002KT P6SM VCSH OVC025

超过4000个机场的气象观测和天气预报(METAR&TAF报告)。

可查询的气象台以黄色和红色小点在地图上表示。

将鼠标移到小点上方,可查看气象台名称。

然后点击查看天气观测和预报。

如需切换地图:点击带黑十字的绿色按钮放大地图;点击带横线的绿色按钮缩小地图;或者点击绿色箭头查看邻近地区的地图。


METAR-TAF: